createdAt,value
2023-02-05T00:00:30.447Z,64.74
2023-02-05T00:05:33.491Z,64.49
2023-02-05T00:10:36.183Z,64.65
2023-02-05T00:15:41.902Z,64.81
2023-02-05T00:20:44.359Z,64.02
2023-02-05T00:25:46.897Z,63.80
2023-02-05T00:30:49.560Z,64.04
2023-02-05T00:35:52.395Z,63.70
2023-02-05T00:40:55.126Z,63.75
2023-02-05T00:45:57.839Z,64.45
2023-02-05T00:51:00.562Z,64.18
2023-02-05T00:56:03.923Z,64.24
2023-02-05T01:01:06.815Z,64.05
2023-02-05T01:06:09.526Z,64.64
2023-02-05T01:11:12.149Z,65.01
2023-02-05T01:16:14.766Z,65.19
2023-02-05T01:21:17.446Z,65.13
2023-02-05T01:26:20.127Z,64.10
2023-02-05T01:31:23.923Z,64.83
2023-02-05T01:36:26.795Z,64.36
2023-02-05T01:41:29.473Z,63.76
2023-02-05T01:46:32.142Z,64.50
2023-02-05T01:51:37.707Z,64.23
2023-02-05T01:56:43.395Z,64.64
2023-02-05T02:01:46.890Z,63.84
2023-02-05T02:06:49.701Z,64.54
2023-02-05T02:11:52.372Z,63.94
2023-02-05T02:16:56.045Z,64.56
2023-02-05T02:22:33.218Z,63.96
2023-02-05T02:28:04.633Z,64.13
2023-02-05T02:49:08.566Z,64.49
2023-02-05T02:54:16.968Z,63.85
2023-02-05T02:59:26.341Z,63.94
2023-02-05T03:04:35.114Z,64.14
2023-02-05T03:14:59.466Z,64.47
2023-02-05T03:20:15.347Z,64.22
2023-02-05T03:25:21.930Z,64.67
2023-02-05T03:30:38.538Z,64.94
2023-02-05T03:35:55.479Z,64.89
2023-02-05T03:52:04.068Z,65.29
2023-02-05T04:02:28.667Z,65.52
2023-02-05T04:07:32.516Z,65.30
2023-02-05T04:12:35.815Z,65.72
2023-02-05T04:17:40.762Z,65.59
2023-02-05T04:22:44.481Z,65.05
2023-02-05T04:27:47.188Z,65.04
2023-02-05T04:32:50.576Z,65.64
2023-02-05T04:37:53.919Z,65.62
2023-02-05T04:42:56.512Z,66.21
2023-02-05T04:48:00.453Z,65.88
2023-02-05T04:53:03.154Z,65.99
2023-02-05T04:58:05.785Z,65.91
2023-02-05T05:03:08.549Z,65.66
2023-02-05T05:08:11.143Z,65.49
2023-02-05T05:13:13.638Z,66.19
2023-02-05T05:18:16.156Z,66.11
2023-02-05T05:23:18.946Z,65.73
2023-02-05T05:28:21.588Z,65.84
2023-02-05T05:33:24.178Z,67.09
2023-02-05T05:38:26.900Z,67.04
2023-02-05T05:43:49.272Z,66.87
2023-02-05T05:48:55.811Z,66.35
2023-02-05T05:53:58.665Z,67.07
2023-02-05T05:59:01.220Z,65.84
2023-02-05T06:04:04.506Z,66.45
2023-02-05T06:09:07.071Z,66.29
2023-02-05T06:14:09.563Z,66.98
2023-02-05T06:19:12.081Z,66.50
2023-02-05T06:24:14.553Z,66.31
2023-02-05T06:29:17.141Z,66.52
2023-02-05T06:34:19.598Z,66.30
2023-02-05T06:39:24.905Z,65.79
2023-02-05T06:44:27.864Z,65.59
2023-02-05T06:49:30.441Z,66.37
2023-02-05T06:54:33.229Z,65.57
2023-02-05T06:59:35.783Z,66.65
2023-02-05T07:04:38.534Z,66.22
2023-02-05T07:09:41.221Z,66.15
2023-02-05T07:14:43.817Z,65.53
2023-02-05T07:19:46.674Z,65.30
2023-02-05T07:24:49.247Z,66.46
2023-02-05T07:29:51.856Z,64.94
2023-02-05T07:34:54.440Z,65.20
2023-02-05T07:39:57.061Z,64.73
2023-02-05T07:44:59.551Z,64.47
2023-02-05T07:50:02.094Z,64.55
2023-02-05T07:55:05.822Z,64.34
2023-02-05T08:00:10.245Z,64.40
2023-02-05T08:05:16.119Z,63.27
2023-02-05T08:10:18.899Z,64.37
2023-02-05T08:15:21.699Z,64.18
2023-02-05T08:20:24.356Z,63.71
2023-02-05T08:25:26.974Z,63.00
2023-02-05T08:30:29.597Z,63.18
2023-02-05T08:35:32.886Z,63.40
2023-02-05T08:40:37.006Z,63.79
2023-02-05T08:45:40.290Z,62.89
2023-02-05T08:50:46.222Z,63.16
2023-02-05T08:55:56.345Z,62.71
2023-02-05T09:01:04.299Z,62.71
2023-02-05T09:06:11.112Z,61.88
2023-02-05T09:11:13.774Z,63.71
2023-02-05T09:16:16.527Z,62.80
2023-02-05T09:21:19.171Z,62.37
2023-02-05T09:26:21.915Z,62.65
2023-02-05T09:31:24.692Z,61.86
2023-02-05T09:36:27.551Z,62.22
2023-02-05T09:41:54.785Z,61.75
2023-02-05T09:52:21.719Z,61.10
2023-02-05T09:57:34.271Z,61.62
2023-02-05T10:02:50.088Z,62.76
2023-02-05T10:13:26.373Z,60.93
2023-02-05T10:35:03.077Z,61.39
2023-02-05T10:40:14.200Z,61.21
2023-02-05T10:45:22.455Z,62.29
2023-02-05T10:50:50.619Z,61.50
2023-02-05T10:55:53.497Z,61.92
2023-02-05T11:00:56.481Z,61.51
2023-02-05T11:05:59.617Z,62.75
2023-02-05T11:11:03.210Z,63.15
2023-02-05T11:16:09.238Z,62.91
2023-02-05T11:21:12.443Z,63.75
2023-02-05T11:31:35.146Z,62.51
2023-02-05T11:36:48.290Z,62.44
2023-02-05T11:41:52.790Z,62.27
2023-02-05T11:46:57.769Z,62.40
2023-02-05T11:52:09.608Z,63.53
2023-02-05T12:07:45.339Z,64.65
2023-02-05T12:13:00.322Z,64.96
2023-02-05T12:29:06.164Z,63.48
2023-02-05T12:50:14.724Z,63.15
2023-02-05T13:00:38.037Z,65.29
2023-02-05T13:05:48.978Z,64.12
2023-02-05T13:11:31.342Z,63.82
2023-02-05T13:16:46.095Z,63.16
2023-02-05T13:22:10.158Z,63.77
2023-02-05T13:27:55.143Z,64.00
2023-02-05T13:33:02.298Z,64.38
2023-02-05T14:04:54.324Z,64.06
2023-02-05T14:10:00.714Z,65.55
2023-02-05T14:15:24.078Z,64.89
2023-02-05T14:31:00.811Z,66.33
2023-02-05T14:41:47.085Z,65.25
2023-02-05T14:52:27.304Z,65.22
2023-02-05T15:08:58.174Z,65.25
2023-02-05T15:19:38.257Z,65.64
2023-02-05T15:24:44.052Z,66.00
2023-02-05T15:29:50.405Z,66.32
2023-02-05T15:34:56.872Z,66.14
2023-02-05T15:45:40.764Z,65.46
2023-02-05T15:50:52.570Z,65.77
2023-02-05T15:55:56.305Z,65.78
2023-02-05T16:00:59.034Z,65.72
2023-02-05T16:06:02.206Z,65.80
2023-02-05T16:11:06.395Z,66.55
2023-02-05T16:16:19.727Z,66.44
2023-02-05T16:21:31.725Z,66.41
2023-02-05T16:26:39.792Z,66.40
2023-02-05T16:31:45.144Z,66.31
2023-02-05T16:36:50.397Z,66.19
2023-02-05T16:52:33.796Z,66.51
2023-02-05T16:57:38.998Z,66.25
2023-02-05T17:02:42.225Z,66.58
2023-02-05T17:07:55.008Z,66.52
2023-02-05T17:18:30.204Z,66.14
2023-02-05T17:23:32.788Z,66.10
2023-02-05T17:28:43.882Z,66.30
2023-02-05T17:33:50.307Z,66.24
2023-02-05T17:38:53.243Z,67.02
2023-02-05T17:43:55.846Z,66.89
2023-02-05T17:48:59.857Z,67.67
2023-02-05T17:54:02.501Z,67.40
2023-02-05T17:59:06.298Z,67.30
2023-02-05T18:04:09.027Z,68.75
2023-02-05T18:09:12.638Z,67.16
2023-02-05T18:14:15.341Z,67.34
2023-02-05T18:19:17.935Z,67.96
2023-02-05T18:24:20.673Z,68.31
2023-02-05T18:29:24.400Z,69.04
2023-02-05T18:34:27.380Z,68.41
2023-02-05T18:39:30.019Z,69.07
2023-02-05T18:44:33.802Z,68.78
2023-02-05T18:49:36.925Z,67.70
2023-02-05T18:54:39.862Z,67.82
2023-02-05T18:59:44.615Z,66.68
2023-02-05T19:04:52.420Z,68.00
2023-02-05T19:09:56.317Z,67.61
2023-02-05T19:14:58.873Z,68.88
2023-02-05T19:20:01.545Z,67.76
2023-02-05T19:25:05.682Z,67.67
2023-02-05T19:30:08.803Z,67.85
2023-02-05T19:35:11.545Z,67.17
2023-02-05T19:40:15.415Z,68.84
2023-02-05T19:45:18.013Z,68.07
2023-02-05T19:50:20.724Z,67.74
2023-02-05T19:55:23.402Z,67.76
2023-02-05T20:00:26.694Z,68.14
2023-02-05T20:05:29.408Z,67.59
2023-02-05T20:10:31.940Z,68.43
2023-02-05T20:15:36.521Z,67.72
2023-02-05T20:20:40.502Z,69.18
2023-02-05T20:25:43.212Z,68.33
2023-02-05T20:31:05.730Z,68.18
2023-02-05T20:36:12.253Z,68.37
2023-02-05T20:41:17.560Z,67.84
2023-02-05T20:46:20.689Z,67.29
2023-02-05T20:51:24.477Z,67.34
2023-02-05T20:56:29.735Z,66.92
2023-02-05T21:01:34.564Z,67.03
2023-02-05T21:06:39.420Z,66.84
2023-02-05T21:11:42.928Z,67.20
2023-02-05T21:16:45.660Z,66.63
2023-02-05T21:21:50.065Z,67.17
2023-02-05T21:26:52.823Z,67.14
2023-02-05T21:31:56.145Z,66.92
2023-02-05T21:36:58.887Z,67.28
2023-02-05T21:42:01.474Z,67.59
2023-02-05T21:47:04.127Z,67.82
2023-02-05T21:52:06.844Z,67.28
2023-02-05T21:57:09.566Z,67.67
2023-02-05T22:02:12.601Z,67.22
2023-02-05T22:07:15.278Z,67.01
2023-02-05T22:12:18.094Z,67.10
2023-02-05T22:17:20.654Z,67.18
2023-02-05T22:22:23.197Z,68.98
2023-02-05T22:27:27.198Z,68.94
2023-02-05T22:32:29.726Z,68.30
2023-02-05T22:37:32.624Z,68.26
2023-02-05T22:42:35.239Z,68.42
2023-02-05T22:47:37.777Z,67.89
2023-02-05T22:52:40.340Z,67.20
2023-02-05T22:57:43.168Z,66.75
2023-02-05T23:02:46.525Z,67.04
2023-02-05T23:07:50.007Z,66.82
2023-02-05T23:12:52.705Z,68.58
2023-02-05T23:17:55.386Z,68.52
2023-02-05T23:22:58.138Z,68.86
2023-02-05T23:28:00.837Z,68.41
2023-02-05T23:33:03.447Z,67.95
2023-02-05T23:38:06.038Z,68.19
2023-02-05T23:43:08.587Z,67.40
2023-02-05T23:48:11.264Z,67.22
2023-02-05T23:53:13.960Z,67.03
2023-02-05T23:58:18.237Z,67.71
